createdAt,value
2023-04-18T00:00:21.958Z,93.74
2023-04-18T00:05:25.693Z,93.36
2023-04-18T00:10:30.610Z,92.64
2023-04-18T00:15:35.462Z,92.82
2023-04-18T00:20:39.442Z,92.94
2023-04-18T00:25:44.285Z,92.95
2023-04-18T00:30:48.937Z,93.13
2023-04-18T00:35:52.682Z,93.70
2023-04-18T00:40:57.662Z,92.66
2023-04-18T00:46:01.772Z,92.81
2023-04-18T00:51:06.173Z,92.64
2023-04-18T00:56:11.646Z,92.36
2023-04-18T01:01:15.159Z,92.18
2023-04-18T01:06:20.682Z,92.22
2023-04-18T01:11:25.767Z,92.14
2023-04-18T01:16:29.940Z,92.45
2023-04-18T01:21:37.377Z,92.58
2023-04-18T01:26:45.002Z,92.19
2023-04-18T01:31:48.524Z,92.77
2023-04-18T01:36:52.449Z,92.69
2023-04-18T01:41:57.405Z,92.74
2023-04-18T01:47:01.249Z,93.10
2023-04-18T01:52:05.156Z,92.87
2023-04-18T01:57:10.274Z,92.99
2023-04-18T02:02:15.145Z,93.35
2023-04-18T02:07:18.718Z,93.04
2023-04-18T02:12:23.819Z,93.16
2023-04-18T02:17:27.416Z,93.36
2023-04-18T02:22:31.615Z,93.27
2023-04-18T02:27:39.105Z,93.07
2023-04-18T02:32:42.920Z,92.84
2023-04-18T02:37:46.390Z,92.41
2023-04-18T02:42:51.736Z,91.66
2023-04-18T02:47:56.660Z,92.06
2023-04-18T02:53:00.580Z,92.12
2023-04-18T02:58:16.122Z,91.89
2023-04-18T03:03:28.406Z,91.85
2023-04-18T03:08:48.398Z,90.98
2023-04-18T03:13:54.793Z,90.99
2023-04-18T03:19:01.587Z,90.52
2023-04-18T03:24:07.194Z,91.04
2023-04-18T03:29:13.434Z,91.43
2023-04-18T03:34:20.543Z,91.88
2023-04-18T03:39:24.102Z,91.63
2023-04-18T03:44:31.366Z,92.14
2023-04-18T03:49:35.464Z,92.18
2023-04-18T03:54:40.336Z,92.79
2023-04-18T03:59:47.795Z,92.78
2023-04-18T04:04:51.899Z,92.92
2023-04-18T04:09:56.107Z,93.73
2023-04-18T04:15:01.431Z,93.81
2023-04-18T04:20:09.502Z,94.48
2023-04-18T04:25:13.872Z,95.14
2023-04-18T04:30:21.147Z,95.00
2023-04-18T04:35:25.288Z,95.70
2023-04-18T04:40:29.274Z,95.76
2023-04-18T04:45:43.215Z,95.97
2023-04-18T04:50:54.314Z,96.29
2023-04-18T04:55:58.591Z,96.27
2023-04-18T05:01:03.544Z,96.15
2023-04-18T05:06:11.422Z,95.65
2023-04-18T05:11:15.211Z,95.47
2023-04-18T05:16:20.201Z,95.51
2023-04-18T05:21:24.774Z,94.73
2023-04-18T05:26:28.497Z,94.18
2023-04-18T05:31:36.711Z,93.97
2023-04-18T05:36:40.543Z,93.25
2023-04-18T05:41:44.390Z,93.32
2023-04-18T05:46:51.412Z,92.37
2023-04-18T05:51:56.579Z,92.68
2023-04-18T05:57:00.865Z,92.21
2023-04-18T06:02:10.264Z,90.96
2023-04-18T06:07:13.848Z,90.03
2023-04-18T06:12:17.392Z,89.55
2023-04-18T06:17:23.057Z,89.13
2023-04-18T06:22:26.598Z,88.36
2023-04-18T06:27:31.941Z,88.57
2023-04-18T06:32:37.634Z,87.58
2023-04-18T06:37:44.139Z,88.42
2023-04-18T06:42:47.912Z,88.40
2023-04-18T06:47:53.223Z,88.11
2023-04-18T06:52:57.287Z,87.73
2023-04-18T06:58:01.680Z,88.78
2023-04-18T07:03:11.381Z,88.47
2023-04-18T07:08:15.598Z,87.74
2023-04-18T07:13:18.997Z,86.49
2023-04-18T07:18:36.752Z,86.85
2023-04-18T07:23:41.644Z,86.23
2023-04-18T07:28:45.148Z,85.47
2023-04-18T07:33:50.163Z,84.11
2023-04-18T07:38:53.680Z,84.08
2023-04-18T07:43:57.406Z,84.74
2023-04-18T07:49:03.691Z,84.53
2023-04-18T07:54:07.375Z,83.99
2023-04-18T07:59:10.821Z,82.22
2023-04-18T08:04:15.918Z,81.09
2023-04-18T08:09:20.681Z,80.14
2023-04-18T08:14:24.199Z,80.97
2023-04-18T08:19:29.099Z,81.69
2023-04-18T08:24:32.793Z,80.59
2023-04-18T08:29:36.253Z,81.40
2023-04-18T08:34:41.109Z,81.38
2023-04-18T08:39:45.008Z,82.07
2023-04-18T08:44:48.628Z,81.62
2023-04-18T08:49:53.968Z,80.64
2023-04-18T08:54:57.824Z,81.10
2023-04-18T09:00:02.076Z,81.79
2023-04-18T09:05:14.525Z,81.71
2023-04-18T09:10:27.572Z,82.06
2023-04-18T09:15:31.338Z,81.85
2023-04-18T09:20:38.307Z,81.94
2023-04-18T09:25:46.873Z,80.83
2023-04-18T09:30:53.163Z,79.94
2023-04-18T09:36:00.465Z,80.16
2023-04-18T09:41:10.050Z,79.47
2023-04-18T09:46:14.609Z,79.92
2023-04-18T09:51:20.115Z,79.93
2023-04-18T09:56:26.803Z,79.23
2023-04-18T10:01:31.005Z,79.05
2023-04-18T10:06:39.676Z,79.18
2023-04-18T10:11:43.864Z,79.93
2023-04-18T10:16:49.262Z,79.00
2023-04-18T10:21:57.168Z,78.77
2023-04-18T10:27:00.571Z,78.27
2023-04-18T10:32:07.673Z,77.84
2023-04-18T10:37:14.320Z,78.05
2023-04-18T10:42:17.839Z,77.22
2023-04-18T10:47:24.240Z,74.50
2023-04-18T10:52:30.815Z,74.53
2023-04-18T10:57:42.300Z,75.02
2023-04-18T11:02:57.962Z,72.44
2023-04-18T11:08:03.203Z,71.64
2023-04-18T11:13:07.244Z,68.92
2023-04-18T11:18:11.045Z,67.92
2023-04-18T11:23:21.574Z,66.36
2023-04-18T11:28:26.090Z,65.96
2023-04-18T11:33:30.401Z,65.23
2023-04-18T11:38:35.993Z,64.89
2023-04-18T11:43:43.650Z,64.53
2023-04-18T11:48:47.895Z,63.21
2023-04-18T11:53:53.384Z,62.01
2023-04-18T11:58:57.152Z,63.20
2023-04-18T12:04:05.253Z,63.66
2023-04-18T12:09:15.168Z,61.61
2023-04-18T12:14:22.372Z,60.58
2023-04-18T12:19:28.852Z,61.75
2023-04-18T12:24:34.659Z,60.33
2023-04-18T12:29:38.514Z,61.57
2023-04-18T12:34:41.930Z,60.33
2023-04-18T12:39:47.013Z,61.57
2023-04-18T12:44:50.707Z,60.34
2023-04-18T12:49:54.197Z,61.54
2023-04-18T12:54:59.469Z,61.13
2023-04-18T13:00:04.919Z,62.83
2023-04-18T13:05:10.094Z,64.31
2023-04-18T13:10:16.214Z,61.79
2023-04-18T13:15:22.789Z,62.49
2023-04-18T13:20:26.357Z,64.48
2023-04-18T13:25:31.416Z,63.44
2023-04-18T13:30:36.030Z,64.69
2023-04-18T13:35:39.501Z,66.32
2023-04-18T13:40:44.396Z,64.40
2023-04-18T13:45:48.170Z,63.64
2023-04-18T13:50:51.673Z,64.38
2023-04-18T13:55:57.335Z,65.56
2023-04-18T14:01:01.019Z,64.95
2023-04-18T14:06:04.655Z,65.68
2023-04-18T14:11:09.792Z,64.85
2023-04-18T14:16:14.903Z,64.64
2023-04-18T14:21:18.817Z,65.58
2023-04-18T14:26:24.496Z,67.68
2023-04-18T14:31:28.532Z,67.97
2023-04-18T14:36:32.751Z,67.85
2023-04-18T14:41:37.620Z,68.64
2023-04-18T14:46:41.389Z,71.45
2023-04-18T14:51:45.036Z,71.81
2023-04-18T14:56:50.402Z,71.56
2023-04-18T15:01:54.002Z,72.16
2023-04-18T15:06:57.783Z,71.49
2023-04-18T15:12:02.964Z,71.03
2023-04-18T15:17:06.977Z,72.56
2023-04-18T15:22:10.931Z,72.42
2023-04-18T15:27:16.023Z,72.59
2023-04-18T15:32:20.929Z,72.37
2023-04-18T15:37:24.824Z,72.95
2023-04-18T15:42:31.556Z,73.68
2023-04-18T15:47:35.466Z,73.44
2023-04-18T15:52:40.981Z,73.96
2023-04-18T15:57:46.470Z,72.91
2023-04-18T16:02:50.041Z,73.90
2023-04-18T16:07:53.936Z,74.85
2023-04-18T16:12:59.640Z,74.99
2023-04-18T16:18:03.302Z,75.54
2023-04-18T16:23:07.236Z,76.32
2023-04-18T16:28:12.136Z,76.18
2023-04-18T16:33:15.753Z,76.02
2023-04-18T16:38:19.625Z,76.17
2023-04-18T16:43:26.977Z,75.96
2023-04-18T16:48:30.938Z,76.38
2023-04-18T16:53:35.022Z,76.72
2023-04-18T16:58:40.161Z,77.09
2023-04-18T17:03:45.291Z,78.69
2023-04-18T17:08:49.211Z,79.50
2023-04-18T17:13:54.085Z,79.59
2023-04-18T17:18:57.872Z,78.58
2023-04-18T17:24:03.818Z,78.05
2023-04-18T17:29:09.109Z,78.05
2023-04-18T17:34:12.576Z,78.50
2023-04-18T17:39:17.055Z,78.62
2023-04-18T17:44:22.027Z,78.62
2023-04-18T17:49:31.428Z,79.25
2023-04-18T17:54:35.164Z,79.40
2023-04-18T17:59:40.674Z,80.79
2023-04-18T18:04:44.538Z,80.78
2023-04-18T18:09:48.090Z,81.02
2023-04-18T18:14:52.932Z,81.43
2023-04-18T18:19:56.592Z,81.88
2023-04-18T18:25:00.494Z,82.21
2023-04-18T18:30:06.264Z,81.62
2023-04-18T18:35:13.775Z,80.82
2023-04-18T18:40:17.892Z,80.66
2023-04-18T18:45:23.151Z,81.90
2023-04-18T18:50:28.502Z,82.17
2023-04-18T18:55:32.005Z,82.36
2023-04-18T19:00:39.300Z,82.13
2023-04-18T19:05:42.787Z,81.84
2023-04-18T19:10:46.268Z,81.29
2023-04-18T19:15:51.224Z,81.61
2023-04-18T19:20:54.821Z,81.66
2023-04-18T19:25:58.395Z,81.82
2023-04-18T19:31:03.337Z,82.25
2023-04-18T19:36:07.454Z,82.59
2023-04-18T19:41:11.538Z,83.16
2023-04-18T19:46:16.552Z,83.27
2023-04-18T19:51:20.470Z,83.49
2023-04-18T19:56:23.953Z,83.25
2023-04-18T20:01:29.180Z,83.42
2023-04-18T20:06:32.726Z,83.71
2023-04-18T20:11:36.472Z,83.53
2023-04-18T20:16:45.932Z,84.60
2023-04-18T20:21:49.714Z,85.08
2023-04-18T20:26:53.184Z,85.91
2023-04-18T20:31:58.119Z,86.14
2023-04-18T20:37:01.536Z,86.84
2023-04-18T20:42:05.474Z,87.65
2023-04-18T20:47:10.720Z,87.15
2023-04-18T20:52:14.520Z,87.06
2023-04-18T20:57:18.049Z,87.36
2023-04-18T21:02:23.206Z,87.59
2023-04-18T21:07:26.771Z,87.57
2023-04-18T21:12:30.294Z,87.83
2023-04-18T21:17:35.586Z,88.50
2023-04-18T21:22:39.085Z,89.12
2023-04-18T21:27:42.770Z,89.55
2023-04-18T21:32:49.323Z,89.12
2023-04-18T21:37:53.116Z,89.28
2023-04-18T21:42:56.851Z,89.74
2023-04-18T21:48:03.109Z,89.81
2023-04-18T21:53:06.941Z,89.99
2023-04-18T21:58:10.310Z,90.16
2023-04-18T22:03:15.456Z,89.81
2023-04-18T22:08:19.370Z,90.46
2023-04-18T22:13:23.398Z,90.77
2023-04-18T22:18:30.504Z,90.31
2023-04-18T22:23:33.963Z,89.84
2023-04-18T22:28:37.791Z,90.55
2023-04-18T22:33:43.089Z,90.22
2023-04-18T22:38:46.560Z,90.51
2023-04-18T22:43:50.274Z,91.01
2023-04-18T22:48:55.627Z,91.13
2023-04-18T22:53:59.445Z,91.32
2023-04-18T22:59:03.189Z,90.52
2023-04-18T23:04:08.446Z,90.32
2023-04-18T23:09:12.119Z,91.38
2023-04-18T23:14:16.258Z,92.17
2023-04-18T23:19:21.233Z,92.83
2023-04-18T23:24:24.982Z,93.30
2023-04-18T23:29:28.854Z,93.34
2023-04-18T23:34:33.796Z,94.77
2023-04-18T23:39:37.606Z,94.32
2023-04-18T23:44:41.383Z,94.56
2023-04-18T23:49:46.539Z,94.50
2023-04-18T23:54:50.009Z,95.48
2023-04-18T23:59:53.856Z,95.61
